Time;durP1;ratioP1;P1;durP2;ratioP2;P2;SDS_P1;SDS_P2;PMS_P1;PMS_P2;Temp;Humidity;BMP_temperature;BMP_pressure;BME280_temperature;BME280_humidity;BME280_pressure;Samples;Min_cycle;Max_cycle;Signal;HPM_P1;HPM_P2
2021/09/22 00:00:28;;;;;;;13.9;9.9;;;;;;;11.03;87.85449;948.1061;;;;
2021/09/22 00:02:53;;;;;;;12.7;10;;;;;;;11.1;87.42285;948.1077;;;;
2021/09/22 00:05:20;;;;;;;12;9.1;;;;;;;11.08;87.15625;948.0938;;;;
2021/09/22 00:07:45;;;;;;;13.3;9.1;;;;;;;11.11;86.67188;948.0595;;;;
2021/09/22 00:11:09;;;;;;;12.6;8.6;;;;;;;11.04;86.93164;948.0754;;;;
2021/09/22 00:13:23;;;;;;;13.3;9.1;;;;;;;11;87.47363;948.0478;;;;
2021/09/22 00:16:20;;;;;;;11.7;8.4;;;;;;;10.87;87.06934;948.0209;;;;
2021/09/22 00:18:46;;;;;;;11.9;8.1;;;;;;;10.84;86.91504;948.0106;;;;
2021/09/22 00:21:12;;;;;;;11.2;8.7;;;;;;;10.8;87.30762;948.0316;;;;
2021/09/22 00:23:39;;;;;;;11.4;8.7;;;;;;;10.85;88.05762;947.9924;;;;
2021/09/22 00:26:03;;;;;;;11.1;8.3;;;;;;;10.86;88.2002;947.8756;;;;
2021/09/22 00:28:31;;;;;;;10.7;8.8;;;;;;;11.01;88.0791;947.8901;;;;
2021/09/22 00:30:55;;;;;;;11.1;7.8;;;;;;;10.87;87.16016;947.8981;;;;
2021/09/22 00:33:20;;;;;;;10.8;8.2;;;;;;;10.79;87.91113;947.9095;;;;
2021/09/22 00:35:45;;;;;;;11.7;8.3;;;;;;;10.8;88.10742;947.9791;;;;
2021/09/22 00:38:10;;;;;;;11.1;8.4;;;;;;;10.84;87.44043;947.9601;;;;
2021/09/22 00:40:35;;;;;;;11.2;8.3;;;;;;;10.78;87.64648;947.9658;;;;
2021/09/22 00:43:00;;;;;;;11.4;8.9;;;;;;;10.8;87.82031;947.9686;;;;
2021/09/22 00:45:25;;;;;;;11.1;8.5;;;;;;;10.83;88.35254;947.9044;;;;
2021/09/22 00:47:50;;;;;;;11;8.5;;;;;;;10.82;89;947.9375;;;;
2021/09/22 00:50:16;;;;;;;11.2;8.6;;;;;;;10.91;89.34082;947.8752;;;;
2021/09/22 00:52:41;;;;;;;11.8;9;;;;;;;10.94;89.04883;947.9317;;;;
2021/09/22 00:55:06;;;;;;;12;9;;;;;;;10.99;88.68359;947.916;;;;
2021/09/22 00:57:31;;;;;;;11;8.8;;;;;;;11.04;88.41797;947.899;;;;
2021/09/22 00:59:57;;;;;;;11.6;9.1;;;;;;;11.1;88.33789;947.9211;;;;
2021/09/22 01:02:22;;;;;;;12.5;9.1;;;;;;;11.1;88.70313;947.9459;;;;
2021/09/22 01:04:47;;;;;;;12.2;8.6;;;;;;;11.14;88.34863;947.9589;;;;
2021/09/22 01:07:12;;;;;;;10.6;8;;;;;;;11.3;87.53418;947.9939;;;;
2021/09/22 01:09:37;;;;;;;11.8;8.7;;;;;;;11.25;88.16504;947.9697;;;;
2021/09/22 01:12:02;;;;;;;13.3;9.4;;;;;;;11.24;88.53906;948.0842;;;;
2021/09/22 01:14:27;;;;;;;11;8.8;;;;;;;11.36;88.09375;948.1139;;;;
2021/09/22 01:16:52;;;;;;;11.2;8.9;;;;;;;11.37;87.68555;948.1246;;;;
2021/09/22 01:19:18;;;;;;;13.6;9.3;;;;;;;11.36;88.3125;948.0861;;;;
2021/09/22 01:21:43;;;;;;;13.9;9.6;;;;;;;11.32;88.44141;948.0253;;;;
2021/09/22 01:24:09;;;;;;;11.5;8.9;;;;;;;11.39;87.69141;948.0533;;;;
2021/09/22 01:26:34;;;;;;;13.3;9.3;;;;;;;11.46;88.11426;948.1139;;;;
2021/09/22 01:29:00;;;;;;;11.7;9.2;;;;;;;11.51;87.88672;948.1016;;;;
2021/09/22 01:31:25;;;;;;;13.3;9.4;;;;;;;11.56;87.66699;948.1322;;;;
2021/09/22 01:33:50;;;;;;;12.5;9.3;;;;;;;11.63;87.39355;948.1277;;;;
2021/09/22 01:36:15;;;;;;;12.8;9.5;;;;;;;11.69;86.67188;948.1934;;;;
2021/09/22 01:38:40;;;;;;;11.7;9;;;;;;;11.74;85.87109;948.1188;;;;
2021/09/22 01:41:13;;;;;;;12.9;9.1;;;;;;;11.77;85.07324;948.1033;;;;
2021/09/22 01:43:40;;;;;;;10.8;8.6;;;;;;;11.62;85.45703;948.1464;;;;
2021/09/22 01:46:05;;;;;;;11.2;8.7;;;;;;;11.65;85.56543;948.1414;;;;
2021/09/22 01:48:30;;;;;;;11.7;9;;;;;;;11.64;85.66895;948.1047;;;;
2021/09/22 01:50:57;;;;;;;13.3;9.1;;;;;;;11.53;86.03418;948.1586;;;;
2021/09/22 01:54:02;;;;;;;11.6;8.6;;;;;;;11.53;85.98828;948.1147;;;;
2021/09/22 01:56:29;;;;;;;11.7;8.6;;;;;;;11.6;86.36914;948.2256;;;;
2021/09/22 01:58:54;;;;;;;13.5;9.3;;;;;;;11.68;87.01465;948.2514;;;;
2021/09/22 02:01:34;;;;;;;12.6;9.5;;;;;;;11.79;86.33789;948.231;;;;
2021/09/22 02:04:00;;;;;;;11.5;8.6;;;;;;;11.87;84.65918;948.137;;;;
2021/09/22 02:06:25;;;;;;;12;8.8;;;;;;;11.85;84.94238;948.1925;;;;
2021/09/22 02:08:51;;;;;;;10.8;8.8;;;;;;;11.85;85.29883;948.1974;;;;
2021/09/22 02:11:16;;;;;;;13.1;9.6;;;;;;;11.98;84.84277;948.1953;;;;
2021/09/22 02:13:43;;;;;;;12.6;8.8;;;;;;;11.96;85.69629;948.1318;;;;
2021/09/22 02:16:08;;;;;;;14.1;10.2;;;;;;;12.01;85.21484;948.2037;;;;
2021/09/22 02:18:34;;;;;;;11.8;8.9;;;;;;;12.03;85.8252;948.1942;;;;
2021/09/22 02:20:59;;;;;;;12.4;9.2;;;;;;;12.07;85.94727;948.2275;;;;
2021/09/22 02:23:25;;;;;;;11.7;8.7;;;;;;;12.12;84.01953;948.1574;;;;
2021/09/22 02:25:50;;;;;;;10.2;8.3;;;;;;;12.08;84.53027;948.1192;;;;
2021/09/22 02:28:15;;;;;;;12.4;8.5;;;;;;;12.14;83.81836;948.1091;;;;
2021/09/22 02:30:40;;;;;;;12.2;8.5;;;;;;;12.12;83.75781;948.0114;;;;
2021/09/22 02:33:06;;;;;;;10.6;8.6;;;;;;;12.01;84.35547;947.9531;;;;
2021/09/22 02:35:31;;;;;;;11.4;8.2;;;;;;;12.04;84.88574;947.9698;;;;
2021/09/22 02:37:56;;;;;;;11.3;8.6;;;;;;;;;;;;;
2021/09/22 02:40:21;;;;;;;11.8;8.4;;;;;;;;;;;;;
2021/09/22 02:42:47;;;;;;;11;8.6;;;;;;;;;;;;;
2021/09/22 02:45:26;;;;;;;11.6;8.9;;;;;;;;;;;;;
2021/09/22 02:47:36;;;;;;;11.3;8.6;;;;;;;;;;;;;
2021/09/22 02:50:01;;;;;;;12;9.2;;;;;;;;;;;;;
2021/09/22 02:53:03;;;;;;;13.6;8.8;;;;;;;;;;;;;
2021/09/22 02:57:49;;;;;;;11.8;8.9;;;;;;;;;;;;;
2021/09/22 03:00:14;;;;;;;14.5;8.8;;;;;;;;;;;;;
2021/09/22 03:02:40;;;;;;;13.3;9.5;;;;;;;;;;;;;
2021/09/22 03:05:05;;;;;;;10.8;8.7;;;;;;;;;;;;;
2021/09/22 03:07:30;;;;;;;12.4;9;;;;;;;;;;;;;
2021/09/22 03:09:55;;;;;;;15.2;10;;;;;;;;;;;;;
2021/09/22 03:12:20;;;;;;;13.3;9;;;;;;;;;;;;;
2021/09/22 03:14:54;;;;;;;13.8;10;;;;;;;;;;;;;
2021/09/22 03:17:10;;;;;;;13.7;9.6;;;;;;;;;;;;;
2021/09/22 03:19:35;;;;;;;13.2;9.7;;;;;;;;;;;;;
2021/09/22 03:22:01;;;;;;;13.7;9.8;;;;;;;;;;;;;
2021/09/22 03:24:26;;;;;;;12.9;9.4;;;;;;;;;;;;;
2021/09/22 03:26:51;;;;;;;12.9;9.6;;;;;;;;;;;;;
2021/09/22 03:29:16;;;;;;;14.6;9.8;;;;;;;;;;;;;
2021/09/22 03:31:42;;;;;;;13.5;9.3;;;;;;;;;;;;;
2021/09/22 03:34:13;;;;;;;10.7;8.5;;;;;;;;;;;;;
2021/09/22 03:36:38;;;;;;;10.6;8.4;;;;;;;;;;;;;
2021/09/22 03:39:03;;;;;;;11.5;8.6;;;;;;;;;;;;;
2021/09/22 03:41:28;;;;;;;12.4;8.1;;;;;;;;;;;;;
2021/09/22 03:43:53;;;;;;;11.1;8.1;;;;;;;;;;;;;
2021/09/22 03:46:18;;;;;;;13.2;8.6;;;;;;;;;;;;;
2021/09/22 03:48:43;;;;;;;12.2;8.4;;;;;;;;;;;;;
2021/09/22 03:51:08;;;;;;;12.1;8.1;;;;;;;;;;;;;
2021/09/22 03:53:34;;;;;;;11.6;7.8;;;;;;;;;;;;;
2021/09/22 03:55:59;;;;;;;12.9;8.5;;;;;;;;;;;;;
2021/09/22 03:58:24;;;;;;;13.8;8.7;;;;;;;;;;;;;
2021/09/22 04:02:31;;;;;;;11;7.9;;;;;;;11.07;87.93164;948.0878;;;;
2021/09/22 04:04:56;;;;;;;14.2;9;;;;;;;11.05;88.35156;948.0978;;;;
2021/09/22 04:07:23;;;;;;;11;8.3;;;;;;;10.93;88.31641;948.0931;;;;
2021/09/22 04:09:48;;;;;;;13.8;8.9;;;;;;;10.86;88.05176;948.1138;;;;
2021/09/22 04:12:15;;;;;;;11;8.5;;;;;;;10.87;87.92578;948.1362;;;;
2021/09/22 04:14:40;;;;;;;13.2;9;;;;;;;10.73;88.99512;948.0617;;;;
2021/09/22 04:17:05;;;;;;;15.7;9.6;;;;;;;10.76;89.40039;948.2122;;;;
2021/09/22 04:19:33;;;;;;;14.7;8.7;;;;;;;10.75;89.08105;948.2846;;;;
2021/09/22 04:21:59;;;;;;;13.9;9.6;;;;;;;10.64;89.74023;948.2205;;;;
2021/09/22 04:24:24;;;;;;;12.4;9;;;;;;;10.57;90.2041;948.2366;;;;
2021/09/22 04:26:52;;;;;;;11.4;8.5;;;;;;;10.65;89.56055;948.2852;;;;
2021/09/22 04:29:17;;;;;;;12.7;8.5;;;;;;;10.73;88.77832;948.3151;;;;
2021/09/22 04:31:44;;;;;;;12.6;8.9;;;;;;;10.7;88.54395;948.2267;;;;
2021/09/22 04:34:10;;;;;;;11.1;8.4;;;;;;;10.6;89.27539;948.2787;;;;
2021/09/22 04:36:42;;;;;;;10.8;7.8;;;;;;;10.6;89.42383;948.3201;;;;
2021/09/22 04:39:10;;;;;;;11.3;7.7;;;;;;;10.56;89.54199;948.293;;;;
2021/09/22 04:41:35;;;;;;;13.1;7.4;;;;;;;10.58;89.52539;948.2386;;;;
2021/09/22 04:44:02;;;;;;;10;7.2;;;;;;;10.64;89.47754;948.2363;;;;
2021/09/22 04:46:27;;;;;;;10.9;7.3;;;;;;;10.66;88.93457;948.2361;;;;
2021/09/22 04:49:03;;;;;;;10.4;7.7;;;;;;;10.66;88.94629;948.2034;;;;
2021/09/22 04:51:29;;;;;;;9;6.8;;;;;;;10.68;88.4375;948.0948;;;;
2021/09/22 04:53:54;;;;;;;8.6;6.7;;;;;;;10.66;88.47754;948.1199;;;;
2021/09/22 04:56:21;;;;;;;10.3;7.3;;;;;;;10.68;88.68652;948.1066;;;;
2021/09/22 04:58:46;;;;;;;12;7.6;;;;;;;10.64;88.91797;948.1552;;;;
2021/09/22 05:01:11;;;;;;;10.9;7.9;;;;;;;10.64;89.02246;948.0811;;;;
2021/09/22 05:03:36;;;;;;;11.7;8.6;;;;;;;10.65;89.06934;948.1537;;;;
2021/09/22 05:06:01;;;;;;;11.3;8.3;;;;;;;10.62;89.13086;948.1323;;;;
2021/09/22 05:08:26;;;;;;;11.6;8.3;;;;;;;10.63;89.35156;948.154;;;;
2021/09/22 05:10:53;;;;;;;12.9;8.5;;;;;;;10.62;89.1875;948.2008;;;;
2021/09/22 05:13:19;;;;;;;12.8;8.6;;;;;;;10.61;89.41406;948.1938;;;;
2021/09/22 05:15:44;;;;;;;11.7;8.8;;;;;;;10.57;89.83887;948.2302;;;;
2021/09/22 05:18:09;;;;;;;11.6;8.2;;;;;;;10.56;90.11328;948.2148;;;;
2021/09/22 05:20:34;;;;;;;13;8.4;;;;;;;10.58;89.51172;948.2488;;;;
2021/09/22 05:23:01;;;;;;;14;9.1;;;;;;;10.61;89.6543;948.2313;;;;
2021/09/22 05:25:26;;;;;;;12.5;8.7;;;;;;;10.71;89.25391;948.2191;;;;
2021/09/22 05:27:52;;;;;;;12.6;7.9;;;;;;;10.74;88.91699;948.2366;;;;
2021/09/22 05:30:17;;;;;;;12.5;8.9;;;;;;;10.73;88.93848;948.2441;;;;
2021/09/22 05:32:42;;;;;;;10.5;7.7;;;;;;;10.81;88.57813;948.3134;;;;
2021/09/22 05:35:08;;;;;;;13.8;9.3;;;;;;;10.8;88.79297;948.3105;;;;
2021/09/22 05:37:34;;;;;;;11.8;8.6;;;;;;;10.79;89.21191;948.3564;;;;
2021/09/22 05:40:00;;;;;;;13.2;8.8;;;;;;;10.84;89.66895;948.3427;;;;
2021/09/22 05:42:27;;;;;;;11.3;8.3;;;;;;;10.87;89.17188;948.3259;;;;
2021/09/22 05:44:52;;;;;;;11.3;8.4;;;;;;;11.04;88.47559;948.308;;;;
2021/09/22 05:47:18;;;;;;;12.6;8.9;;;;;;;11.11;88.35254;948.2419;;;;
2021/09/22 05:49:43;;;;;;;13.5;8.3;;;;;;;11.19;87.91211;948.2996;;;;
2021/09/22 05:52:10;;;;;;;12.5;8.7;;;;;;;11.25;87.86621;948.2717;;;;
2021/09/22 05:54:35;;;;;;;13.7;8.8;;;;;;;11.26;88.09863;948.3845;;;;
2021/09/22 05:57:00;;;;;;;11.4;8.4;;;;;;;11.34;87.91895;948.3049;;;;
2021/09/22 05:59:26;;;;;;;10.7;8.5;;;;;;;11.44;87.23145;948.3633;;;;
2021/09/22 06:01:54;;;;;;;10.5;7.6;;;;;;;11.42;87.48926;948.2503;;;;
2021/09/22 06:04:19;;;;;;;11.4;7.7;;;;;;;11.42;87.2373;948.3117;;;;
2021/09/22 06:06:44;;;;;;;12;7.8;;;;;;;11.43;86.94141;948.3375;;;;
2021/09/22 06:09:09;;;;;;;10.2;7.8;;;;;;;11.57;86.13477;948.2855;;;;
2021/09/22 06:11:36;;;;;;;9.8;7.5;;;;;;;11.71;85.6582;948.2944;;;;
2021/09/22 06:14:01;;;;;;;11.3;7.5;;;;;;;11.95;85.15625;948.3741;;;;
2021/09/22 06:16:28;;;;;;;8.9;7.4;;;;;;;12.17;84.13477;948.3717;;;;
2021/09/22 06:18:53;;;;;;;12.4;8.2;;;;;;;12.38;83.87695;948.3688;;;;
2021/09/22 06:21:18;;;;;;;10.1;7.9;;;;;;;12.6;82.11816;948.3763;;;;
2021/09/22 06:23:43;;;;;;;11.4;8;;;;;;;12.59;80.85449;948.4408;;;;
2021/09/22 06:26:10;;;;;;;10.1;7.8;;;;;;;12.51;81.67578;948.4754;;;;
2021/09/22 06:28:35;;;;;;;11.7;8;;;;;;;12.38;82.21289;948.3918;;;;
2021/09/22 06:31:01;;;;;;;13.3;8.9;;;;;;;12.64;82.0791;948.3773;;;;
2021/09/22 06:33:26;;;;;;;10.6;7.6;;;;;;;12.39;82.70898;948.4081;;;;
2021/09/22 06:35:52;;;;;;;11.8;8.1;;;;;;;13.05;81.87012;948.3889;;;;
2021/09/22 06:38:17;;;;;;;10.1;7.9;;;;;;;13.33;79.47461;948.3921;;;;
2021/09/22 06:40:42;;;;;;;9.1;7.7;;;;;;;13.69;79.3457;948.4451;;;;
2021/09/22 06:43:07;;;;;;;10.2;8.1;;;;;;;13.66;78.78711;948.4727;;;;
2021/09/22 06:45:33;;;;;;;11.4;8.8;;;;;;;13.79;78.17676;948.4456;;;;
2021/09/22 06:47:58;;;;;;;12.7;8.5;;;;;;;13.35;78.54883;948.4581;;;;
2021/09/22 06:50:28;;;;;;;11.5;8.1;;;;;;;13.74;77.70898;948.4194;;;;
2021/09/22 06:52:53;;;;;;;11.2;7.7;;;;;;;13.92;76.55566;948.5094;;;;
2021/09/22 06:55:18;;;;;;;10.4;8;;;;;;;14.05;76.66992;948.5234;;;;
2021/09/22 06:57:45;;;;;;;10.7;8.1;;;;;;;14.13;77.22754;948.4883;;;;
2021/09/22 07:00:11;;;;;;;11.5;8.4;;;;;;;14.12;77.32715;948.4817;;;;
2021/09/22 07:02:35;;;;;;;10.5;8.2;;;;;;;14.35;76.72363;948.5136;;;;
2021/09/22 07:05:00;;;;;;;12.1;8.4;;;;;;;14.38;74.70117;948.5043;;;;
2021/09/22 07:07:25;;;;;;;10.8;8.2;;;;;;;14.3;76.12695;948.5211;;;;
2021/09/22 07:09:51;;;;;;;11.6;8.5;;;;;;;14.75;73.21973;948.4866;;;;
2021/09/22 07:12:16;;;;;;;11.4;8.2;;;;;;;15.02;72.67578;948.5258;;;;
2021/09/22 07:14:41;;;;;;;11.3;8.1;;;;;;;14.83;72.29785;948.4861;;;;
2021/09/22 07:17:07;;;;;;;11.1;8.3;;;;;;;14.92;72.97168;948.4356;;;;
2021/09/22 07:19:33;;;;;;;9.9;7.5;;;;;;;15.23;70.27441;948.4733;;;;
2021/09/22 07:21:59;;;;;;;10.2;7.4;;;;;;;15.52;68.49902;948.4285;;;;
2021/09/22 07:24:26;;;;;;;11.6;8;;;;;;;15.48;70.06152;948.4554;;;;
2021/09/22 07:26:48;;;;;;;14;8.9;;;;;;;15.13;70.01758;948.4794;;;;
2021/09/22 07:29:14;;;;;;;12.4;9;;;;;;;15.03;71.58301;948.4489;;;;
2021/09/22 07:31:39;;;;;;;14.1;9.8;;;;;;;15.27;69.5791;948.4953;;;;
2021/09/22 07:34:06;;;;;;;14.3;10.2;;;;;;;14.8;71.96094;948.589;;;;
2021/09/22 07:36:31;;;;;;;13.7;9.4;;;;;;;15.01;71.25684;948.5663;;;;
2021/09/22 07:38:57;;;;;;;13.9;10.3;;;;;;;14.8;73.60938;948.6066;;;;
2021/09/22 07:41:22;;;;;;;13.8;9.6;;;;;;;14.83;72.86328;948.6128;;;;
2021/09/22 07:43:49;;;;;;;13.6;10.1;;;;;;;15.09;73.21973;948.6564;;;;
2021/09/22 07:46:15;;;;;;;13.2;9.5;;;;;;;15.04;72.2998;948.7048;;;;
2021/09/22 07:48:40;;;;;;;12.9;9.6;;;;;;;15.49;71.63477;948.7597;;;;
2021/09/22 07:51:05;;;;;;;12.3;9.6;;;;;;;15.85;70.31836;948.7711;;;;
2021/09/22 07:53:30;;;;;;;12.3;9.3;;;;;;;15.61;70.98535;948.7922;;;;
2021/09/22 07:55:57;;;;;;;12.6;9.4;;;;;;;16.02;69.08496;948.7487;;;;
2021/09/22 07:58:22;;;;;;;11.4;9.2;;;;;;;16.05;68.07422;948.7548;;;;
2021/09/22 08:00:50;;;;;;;14;10.1;;;;;;;16.74;66.29297;948.7787;;;;
2021/09/22 08:03:15;;;;;;;12.4;10.1;;;;;;;16.43;69.625;948.7483;;;;
2021/09/22 08:05:40;;;;;;;12.4;9.8;;;;;;;17.01;66.76172;948.7974;;;;
2021/09/22 08:08:05;;;;;;;12.7;9.8;;;;;;;17.41;64.14355;948.7983;;;;
2021/09/22 08:10:31;;;;;;;12.1;9.4;;;;;;;18.47;60.4375;948.7578;;;;
2021/09/22 08:12:57;;;;;;;12.9;10;;;;;;;18.65;62.00977;948.6923;;;;
2021/09/22 08:15:22;;;;;;;11.7;10;;;;;;;19.09;58.99805;948.6483;;;;
2021/09/22 08:17:47;;;;;;;11.7;9.1;;;;;;;18.64;57.56445;948.5947;;;;
2021/09/22 08:20:14;;;;;;;12.3;9.2;;;;;;;18.78;58.45508;948.6561;;;;
2021/09/22 08:22:39;;;;;;;11.8;9.3;;;;;;;19.99;54.32227;948.5937;;;;
2021/09/22 08:25:04;;;;;;;13.6;10;;;;;;;20.47;53.50488;948.5829;;;;
2021/09/22 08:27:29;;;;;;;11.6;9.4;;;;;;;19.28;55.95898;948.6465;;;;
2021/09/22 08:29:55;;;;;;;10.2;8.5;;;;;;;20.92;52.42578;948.6077;;;;
2021/09/22 08:32:20;;;;;;;10.9;9.1;;;;;;;20.78;51.08887;948.5825;;;;
2021/09/22 08:34:45;;;;;;;15.2;9.4;;;;;;;21.44;49.84082;948.5111;;;;
2021/09/22 08:37:10;;;;;;;11.6;8.7;;;;;;;22.12;47.25684;948.5084;;;;
2021/09/22 08:39:38;;;;;;;12;8.9;;;;;;;21.15;47.9375;948.4005;;;;
2021/09/22 08:42:03;;;;;;;11.5;9.1;;;;;;;22.13;45.16016;948.3476;;;;
2021/09/22 08:44:28;;;;;;;11.4;9.1;;;;;;;23.27;42.67773;948.301;;;;
2021/09/22 08:46:53;;;;;;;11.1;9.1;;;;;;;23.5;41.68848;948.2014;;;;
2021/09/22 08:49:19;;;;;;;11.6;9.2;;;;;;;22.72;43.3877;948.2141;;;;
2021/09/22 08:51:44;;;;;;;12.1;9.6;;;;;;;22.33;44.81641;948.2622;;;;
2021/09/22 08:54:10;;;;;;;10;8.4;;;;;;;21.95;45.75098;948.3025;;;;
2021/09/22 08:56:35;;;;;;;10.4;8.4;;;;;;;20.79;48.83398;948.2892;;;;
2021/09/22 08:59:01;;;;;;;10.8;8.6;;;;;;;21.42;47.9082;948.0881;;;;
2021/09/22 09:01:27;;;;;;;9.7;8;;;;;;;21.32;49.71191;948.1108;;;;
2021/09/22 09:03:51;;;;;;;9.8;8.3;;;;;;;19.64;54.09277;948.1863;;;;
2021/09/22 09:06:16;;;;;;;9.8;7.7;;;;;;;20.12;51.875;948.2036;;;;
2021/09/22 09:08:42;;;;;;;10.7;7.8;;;;;;;20.39;50.38867;948.2597;;;;
2021/09/22 09:11:08;;;;;;;9.4;7.6;;;;;;;19.6;52.53809;948.2267;;;;
2021/09/22 09:13:33;;;;;;;9.3;7.7;;;;;;;19.04;55.92871;948.2611;;;;
2021/09/22 09:15:59;;;;;;;10.5;7.2;;;;;;;19.09;55.78418;948.222;;;;
2021/09/22 09:18:26;;;;;;;10.1;7.4;;;;;;;19.57;53.86328;948.1777;;;;
2021/09/22 09:20:50;;;;;;;10.9;7.5;;;;;;;18.84;55.91504;948.0806;;;;
2021/09/22 09:23:16;;;;;;;9.6;7.6;;;;;;;19.11;54.61133;948.1152;;;;
2021/09/22 09:25:42;;;;;;;8.9;7.5;;;;;;;18;60.30371;948.1693;;;;
2021/09/22 09:28:07;;;;;;;10.5;8.2;;;;;;;18.39;58.53125;948.1223;;;;
2021/09/22 09:30:32;;;;;;;10;7.8;;;;;;;17.79;61.44727;948.147;;;;
2021/09/22 09:32:57;;;;;;;10.8;8.2;;;;;;;17.5;60.97754;948.1663;;;;
2021/09/22 09:35:22;;;;;;;9.9;7.5;;;;;;;17.38;61.73926;948.1469;;;;
2021/09/22 09:37:47;;;;;;;10.4;7.9;;;;;;;17.43;63.46094;948.1713;;;;
2021/09/22 09:40:13;;;;;;;10.4;7.6;;;;;;;17.53;63.16309;948.1976;;;;
2021/09/22 09:42:38;;;;;;;11.3;8;;;;;;;17.33;65.03613;948.2129;;;;
2021/09/22 09:45:03;;;;;;;9.9;7.9;;;;;;;17.26;65.22266;948.1284;;;;
2021/09/22 09:47:28;;;;;;;12;8.9;;;;;;;17.63;64.79004;948.1688;;;;
2021/09/22 09:49:55;;;;;;;11.4;9.4;;;;;;;17.39;63.91895;948.0953;;;;
2021/09/22 09:52:20;;;;;;;12.4;8.8;;;;;;;17.74;62.49609;948.073;;;;
2021/09/22 09:54:45;;;;;;;10.3;8.6;;;;;;;17.86;63.08301;948.048;;;;
2021/09/22 09:57:10;;;;;;;10.9;8.4;;;;;;;17.54;64.66113;948.002;;;;
2021/09/22 09:59:37;;;;;;;10.7;8.3;;;;;;;18.02;63.41895;947.9073;;;;
2021/09/22 10:02:02;;;;;;;9.6;7.9;;;;;;;17.61;64.25391;947.9325;;;;
2021/09/22 10:04:28;;;;;;;11;8.1;;;;;;;17.45;66.86328;947.8442;;;;
2021/09/22 10:06:53;;;;;;;9.8;8.1;;;;;;;17.84;64.49609;947.7676;;;;
2021/09/22 10:09:18;;;;;;;10.2;8.1;;;;;;;17.96;61.58789;947.7141;;;;
2021/09/22 10:11:45;;;;;;;10.6;8.5;;;;;;;18.45;61.93457;947.6747;;;;
2021/09/22 10:14:08;;;;;;;10.3;7.7;;;;;;;18.1;61.03711;947.6936;;;;
2021/09/22 10:16:34;;;;;;;12.1;9;;;;;;;18.01;65.18262;947.6356;;;;
2021/09/22 10:18:59;;;;;;;10.5;7.8;;;;;;;18.35;62.12891;947.6443;;;;
2021/09/22 10:21:24;;;;;;;8.8;7.3;;;;;;;18.48;60.97363;947.673;;;;
2021/09/22 10:23:50;;;;;;;10;8;;;;;;;18.32;62.98535;947.6017;;;;
2021/09/22 10:26:16;;;;;;;10.2;7.7;;;;;;;18.86;61.49219;947.5728;;;;
2021/09/22 10:28:41;;;;;;;102.2;11.4;;;;;;;18.29;61.70313;947.593;;;;
2021/09/22 10:31:08;;;;;;;12.1;8.5;;;;;;;18.63;58.83203;947.558;;;;
2021/09/22 10:33:33;;;;;;;9.9;7.6;;;;;;;18.73;60.07813;947.5759;;;;
2021/09/22 10:35:58;;;;;;;10;7.6;;;;;;;18.74;58.94922;947.5734;;;;
2021/09/22 10:38:23;;;;;;;11;8;;;;;;;19.72;55.54785;947.6472;;;;
2021/09/22 10:40:48;;;;;;;18.3;7.9;;;;;;;19.95;56.06738;947.5995;;;;
2021/09/22 10:43:13;;;;;;;10.1;7.8;;;;;;;19.25;58.92676;947.4514;;;;
2021/09/22 10:45:38;;;;;;;9.7;8.1;;;;;;;18.94;59.62891;947.4576;;;;
2021/09/22 10:48:03;;;;;;;10.4;8.6;;;;;;;19.15;60.04199;947.4763;;;;
2021/09/22 10:50:28;;;;;;;9.2;7.1;;;;;;;19.42;59.30957;947.5055;;;;
2021/09/22 10:52:54;;;;;;;10.8;7.9;;;;;;;19.66;57.93066;947.5469;;;;
2021/09/22 10:55:20;;;;;;;13.2;7.9;;;;;;;20.18;54.58008;947.5105;;;;
2021/09/22 10:57:44;;;;;;;8.9;7.2;;;;;;;20.38;53.31934;947.56;;;;
2021/09/22 11:00:10;;;;;;;9.6;7;;;;;;;20.52;53.11426;947.582;;;;
2021/09/22 11:02:37;;;;;;;10.1;7.6;;;;;;;20.23;53.85059;947.6347;;;;
2021/09/22 11:05:02;;;;;;;138.2;11.9;;;;;;;20.2;54.74609;947.6509;;;;
2021/09/22 11:07:28;;;;;;;8.8;6.9;;;;;;;20.84;51.46875;947.57;;;;
2021/09/22 11:09:53;;;;;;;30.3;7.2;;;;;;;20.72;51.35059;947.611;;;;
2021/09/22 11:12:21;;;;;;;53;8.2;;;;;;;20.04;51.50391;947.6046;;;;
2021/09/22 11:14:46;;;;;;;9.7;7;;;;;;;20.69;51.87305;947.5355;;;;
2021/09/22 11:17:14;;;;;;;10.5;7.4;;;;;;;20.05;53.10449;947.593;;;;
2021/09/22 11:19:39;;;;;;;9.8;7.4;;;;;;;20.1;54.0791;947.5625;;;;
2021/09/22 11:22:06;;;;;;;8.7;6.7;;;;;;;20.1;51.73438;947.5447;;;;
2021/09/22 11:24:31;;;;;;;8.9;6.9;;;;;;;20.73;49.56348;947.6021;;;;
2021/09/22 11:26:58;;;;;;;194.8;14.1;;;;;;;19.98;51.62598;947.5806;;;;
2021/09/22 11:29:23;;;;;;;8.7;6.6;;;;;;;20.44;51.46973;947.5525;;;;
2021/09/22 11:31:50;;;;;;;8.5;6.7;;;;;;;20.83;50.94238;947.5547;;;;
2021/09/22 11:34:15;;;;;;;389.8;19.7;;;;;;;19.97;51.75293;947.5185;;;;
2021/09/22 11:36:41;;;;;;;10.6;7.2;;;;;;;20.45;50.25684;947.4689;;;;
2021/09/22 11:39:06;;;;;;;81.2;9.5;;;;;;;20.26;48.96289;947.3836;;;;
2021/09/22 11:41:31;;;;;;;9.1;7.4;;;;;;;20.22;50.15918;947.4267;;;;
2021/09/22 11:43:56;;;;;;;8.2;6.3;;;;;;;20.26;50.59668;947.3772;;;;
2021/09/22 11:46:22;;;;;;;77.4;9.2;;;;;;;19.9;52.48047;947.3997;;;;
2021/09/22 11:48:47;;;;;;;8.8;7.2;;;;;;;19.5;54.63477;947.387;;;;
2021/09/22 11:51:12;;;;;;;9.9;7.4;;;;;;;19.84;54.39746;947.2993;;;;
2021/09/22 11:53:40;;;;;;;9.4;6.9;;;;;;;20.29;52.8877;947.2522;;;;
2021/09/22 11:56:05;;;;;;;65.4;8.4;;;;;;;19.97;52.6875;947.3147;;;;
2021/09/22 11:58:30;;;;;;;8.4;7;;;;;;;19.89;52.66504;947.2834;;;;
2021/09/22 12:00:57;;;;;;;9.3;6.8;;;;;;;20.34;52.01855;947.2045;;;;
2021/09/22 12:03:22;;;;;;;47.6;8.2;;;;;;;20.25;52.14648;947.1589;;;;
2021/09/22 12:05:49;;;;;;;8.4;6.6;;;;;;;19.94;55.99512;947.1931;;;;
2021/09/22 12:08:14;;;;;;;9;6.7;;;;;;;20.69;50.59961;947.1672;;;;
2021/09/22 12:10:39;;;;;;;7.5;6.1;;;;;;;21.35;48.32227;947.1962;;;;
2021/09/22 12:13:04;;;;;;;9.3;6.7;;;;;;;22.53;46.60938;947.1316;;;;
2021/09/22 12:15:29;;;;;;;8.2;6.3;;;;;;;23.49;43.65137;947.187;;;;
2021/09/22 12:17:56;;;;;;;7.3;6.5;;;;;;;23.9;42.35059;947.1303;;;;
2021/09/22 12:20:21;;;;;;;8.1;6;;;;;;;23.73;43.45215;947.1086;;;;
2021/09/22 12:22:48;;;;;;;7.9;5.5;;;;;;;24.35;40.97949;947.1572;;;;
2021/09/22 12:25:13;;;;;;;7.8;6.1;;;;;;;23.6;43.66211;947.1316;;;;
2021/09/22 12:27:39;;;;;;;7.5;5.1;;;;;;;24.55;40.51465;947.0692;;;;
2021/09/22 12:30:05;;;;;;;6.8;5.8;;;;;;;25.29;38.92871;946.9988;;;;
2021/09/22 12:32:29;;;;;;;7.6;6;;;;;;;25.24;38.9707;946.9885;;;;
2021/09/22 12:34:54;;;;;;;7.5;5.7;;;;;;;26.92;35.83496;946.8826;;;;
2021/09/22 12:37:21;;;;;;;6.7;5.8;;;;;;;27.18;34.98926;946.9105;;;;
2021/09/22 12:39:46;;;;;;;7.2;5.8;;;;;;;28.24;33.52734;946.9235;;;;
2021/09/22 12:42:11;;;;;;;6.4;5.3;;;;;;;27.93;34.50195;946.8954;;;;
2021/09/22 12:44:36;;;;;;;21.6;6.1;;;;;;;28.55;34.14453;946.7765;;;;
2021/09/22 12:47:01;;;;;;;6.4;5.5;;;;;;;28.3;33.35352;946.8025;;;;
2021/09/22 12:49:28;;;;;;;5.8;4.8;;;;;;;29.54;32.25391;946.7166;;;;
2021/09/22 12:51:52;;;;;;;5.9;4.9;;;;;;;29.89;30.62109;946.6819;;;;
2021/09/22 12:54:51;;;;;;;5.8;4.9;;;;;;;30.71;29.86328;946.6342;;;;
2021/09/22 12:57:24;;;;;;;5.2;4.7;;;;;;;29.17;32.5127;946.5516;;;;
2021/09/22 12:59:51;;;;;;;77.8;15.1;;;;;;;29.85;30.21191;946.5558;;;;
2021/09/22 13:02:16;;;;;;;18.6;7.1;;;;;;;28.88;32.02734;946.5353;;;;
2021/09/22 13:04:41;;;;;;;154;24.9;;;;;;;26.18;36.58008;946.5531;;;;
2021/09/22 13:07:07;;;;;;;5;4.5;;;;;;;25.23;38.40332;946.5608;;;;
2021/09/22 13:09:31;;;;;;;5.8;4.9;;;;;;;23.78;41.05566;946.5126;;;;
2021/09/22 13:11:56;;;;;;;5.3;4.8;;;;;;;23.83;41.24805;946.4506;;;;
2021/09/22 13:14:21;;;;;;;6.9;5;;;;;;;23.14;43.80566;946.4802;;;;
2021/09/22 13:16:50;;;;;;;5.9;5.2;;;;;;;22.85;42.43848;946.4637;;;;
2021/09/22 13:19:11;;;;;;;5.6;4.8;;;;;;;23.05;41.98828;946.45;;;;
2021/09/22 13:21:38;;;;;;;5.2;4.6;;;;;;;23.06;42.94043;946.3879;;;;
2021/09/22 13:24:03;;;;;;;5.9;4.8;;;;;;;23.34;42.86035;946.4183;;;;
2021/09/22 13:26:28;;;;;;;5.3;4.8;;;;;;;22.89;43.21777;946.4253;;;;
2021/09/22 13:28:54;;;;;;;5.2;4.7;;;;;;;23.12;45.16602;946.4019;;;;
2021/09/22 13:31:20;;;;;;;5.4;4.4;;;;;;;25.18;40.06348;946.35;;;;
2021/09/22 13:33:45;;;;;;;4.9;4.4;;;;;;;24.93;38.38867;946.3602;;;;
2021/09/22 13:36:11;;;;;;;5.5;4.7;;;;;;;23.8;40.26953;946.3853;;;;
2021/09/22 13:38:36;;;;;;;5.9;4.4;;;;;;;23.65;41.72656;946.3781;;;;
2021/09/22 13:41:01;;;;;;;6.6;4.7;;;;;;;23.64;41.98438;946.3978;;;;
2021/09/22 13:43:28;;;;;;;5.3;4.3;;;;;;;23.18;43.60938;946.4135;;;;
2021/09/22 13:45:52;;;;;;;6.4;4.4;;;;;;;23.86;41.36816;946.4548;;;;
2021/09/22 13:48:17;;;;;;;4.8;4.2;;;;;;;24.18;40.45703;946.3745;;;;
2021/09/22 13:50:43;;;;;;;4.8;4.3;;;;;;;24.34;41.20215;946.4225;;;;
2021/09/22 13:53:08;;;;;;;5.1;4.3;;;;;;;24.89;38.97559;946.3627;;;;
2021/09/22 13:55:33;;;;;;;6.1;4.6;;;;;;;24.22;40;946.3555;;;;
2021/09/22 13:57:59;;;;;;;5.1;4.3;;;;;;;24.72;40.02246;946.3187;;;;
2021/09/22 14:00:24;;;;;;;5;4.2;;;;;;;25.45;38.00879;946.1944;;;;
2021/09/22 14:02:50;;;;;;;4.7;3.9;;;;;;;25.56;37.45117;946.2272;;;;
2021/09/22 14:05:14;;;;;;;4.9;4.4;;;;;;;24.08;40.05957;946.2506;;;;
2021/09/22 14:07:40;;;;;;;4.3;3.9;;;;;;;23.02;43.14648;946.158;;;;
2021/09/22 14:10:05;;;;;;;4.9;4.2;;;;;;;22.29;44.46094;946.1245;;;;
2021/09/22 14:12:31;;;;;;;4.7;4.1;;;;;;;22.39;44.59961;946.1498;;;;
2021/09/22 14:14:59;;;;;;;5.8;4.3;;;;;;;22.04;45.9707;946.1897;;;;
2021/09/22 14:17:21;;;;;;;4.4;3.8;;;;;;;21.85;45.69434;946.1383;;;;
2021/09/22 14:19:46;;;;;;;5.2;4.3;;;;;;;21.46;46.21484;946.1992;;;;
2021/09/22 14:22:11;;;;;;;5.4;4.3;;;;;;;21.13;46.99902;946.17;;;;
2021/09/22 14:24:37;;;;;;;4.4;4;;;;;;;20.62;48.03223;946.1942;;;;
2021/09/22 14:27:03;;;;;;;5.5;4.3;;;;;;;20.14;50.3252;946.1436;;;;
2021/09/22 14:29:27;;;;;;;5.1;4.5;;;;;;;19.67;50.12207;946.1866;;;;
2021/09/22 14:31:53;;;;;;;6.6;4.6;;;;;;;19.88;50.17969;946.2302;;;;
2021/09/22 14:34:18;;;;;;;5.1;4.4;;;;;;;19.62;51.45703;946.199;;;;
2021/09/22 14:36:46;;;;;;;5.6;4.7;;;;;;;19.76;50.35156;946.2598;;;;